Lubny, Ukraine
Current Conditions -  °F | °C
As of 3:00 PM on Thursday 27 Nov 2014 (Local Time) from UKBB Reporting Station
Clear Clear  
Wind Chill: 19°   Ceiling: Unl
Heat Index: 25°   Visibility: 6mi
Dew Point: 18°   Wind: 4mph
Humidity: 74%   Direction: NA
Pressure: 30.3"   Gusts: NA
Location:  50.02°N, 33.01°E
Report Text: UKBB 271200Z VRB02MPS CAVOK M04/M08 Q1026 88810550 NOSIG
Loading
Personal Weather Stations






























Interactive Weather Map New forecast layout! Learn more

10-Day Weather Forecast

Advertisements
Track Severe Weather on mobile